Terminal Aerodrome Forecast
Issued by NWS Jackson, MS

Home | Current Version | Previous Version | Text Only | Print | Product List | Glossary On
Versions: 1 2 3 4 5 6 7 8 9 10 11 12 13
000
FTUS44 KMEG 231720
TAFTUP
TAF
KTUP 231720Z 2318/2418 16010G15KT P6SM FEW050
     FM240600 18014G21KT P6SM BKN015
     FM241700 18018G28KT P6SM BKN035=

USA.gov is the U.S. government's official web portal to all federal, state and local government web resources and services.